Time;durP1;ratioP1;P1;durP2;ratioP2;P2;SDS_P1;SDS_P2;PMS_P1;PMS_P2;Temp;Humidity;BMP_temperature;BMP_pressure;BME280_temperature;BME280_humidity;BME280_pressure;Samples;Min_cycle;Max_cycle;Signal;HPM_P1;HPM_P2
2023/07/16 06:11:14;;;;;;;;;10.00;8.33;;;;;-145.45;100.00;57426.63;5398125;23;46271;-67
2023/07/16 06:13:40;;;;;;;;;12.67;9.00;;;;;-145.45;100.00;57426.63;4941770;28;45364;-69
2023/07/16 06:16:05;;;;;;;;;15.67;10.00;;;;;-145.45;100.00;57426.63;4941802;28;46191;-68
2023/07/16 06:18:31;;;;;;;;;9.33;8.33;;;;;-145.45;100.00;57426.63;4942774;28;45321;-68
2023/07/16 06:20:56;;;;;;;;;13.67;11.33;;;;;-145.45;100.00;57426.63;4941963;28;46066;-68
2023/07/16 06:23:21;;;;;;;;;11.67;11.00;;;;;-145.45;100.00;57426.63;4943277;28;45231;-68
2023/07/16 06:25:48;;;;;;;;;9.00;6.33;;;;;-145.45;100.00;57426.63;4942020;28;46530;-68
2023/07/16 06:28:14;;;;;;;;;14.33;11.00;;;;;-145.45;100.00;57426.63;4940861;28;45570;-68
2023/07/16 06:30:39;;;;;;;;;9.67;9.67;;;;;-145.45;100.00;57426.63;4942656;28;45333;-68
2023/07/16 06:33:05;;;;;;;;;8.67;5.00;;;;;-145.45;100.00;57426.63;4942806;28;44888;-68
2023/07/16 06:35:30;;;;;;;;;7.67;6.00;;;;;-145.45;100.00;57426.63;4942573;28;45941;-68
2023/07/16 06:37:56;;;;;;;;;12.00;9.00;;;;;-145.45;100.00;57426.63;4941471;28;45459;-69
2023/07/16 06:40:21;;;;;;;;;15.00;10.00;;;;;-145.45;100.00;57426.63;4940543;28;48626;-69
2023/07/16 06:42:46;;;;;;;;;11.67;9.67;;;;;-145.45;100.00;57426.63;4942674;28;45463;-69
2023/07/16 06:45:11;;;;;;;;;13.00;9.00;;;;;-145.45;100.00;57426.63;4941557;28;45510;-69
2023/07/16 06:47:37;;;;;;;;;9.50;7.50;;;;;-145.45;100.00;57426.63;4942786;28;45463;-71
2023/07/16 06:50:02;;;;;;;;;16.00;13.00;;;;;-145.45;100.00;57426.63;4942517;28;45262;-69
2023/07/16 06:52:28;;;;;;;;;11.33;9.33;;;;;-145.45;100.00;57426.63;4942494;28;45342;-69
2023/07/16 06:54:55;;;;;;;;;12.33;9.33;;;;;-145.45;100.00;57426.63;4941644;28;49743;-69
2023/07/16 06:57:20;;;;;;;;;13.33;10.00;;;;;-145.45;100.00;57426.63;4940513;28;45502;-70
2023/07/16 06:59:45;;;;;;;;;10.33;10.00;;;;;-145.45;100.00;57426.63;4942520;28;45382;-69
2023/07/16 07:02:12;;;;;;;;;13.00;10.33;;;;;-145.45;100.00;57426.63;4942659;28;45306;-69
2023/07/16 07:04:37;;;;;;;;;12.67;7.00;;;;;-145.45;100.00;57426.63;4940937;28;47240;-70
2023/07/16 07:07:02;;;;;;;;;8.33;8.33;;;;;-145.45;100.00;57426.63;4941810;28;45247;-70
2023/07/16 07:09:28;;;;;;;;;10.67;10.67;;;;;-145.45;100.00;57426.63;4942910;28;45278;-70
2023/07/16 07:11:53;;;;;;;;;10.67;9.00;;;;;-145.45;100.00;57426.63;4941081;28;45449;-70
2023/07/16 07:14:18;;;;;;;;;13.33;10.00;;;;;-145.45;100.00;57426.63;4941807;28;55875;-69
2023/07/16 07:16:44;;;;;;;;;10.33;7.67;;;;;-145.45;100.00;57426.63;4941723;28;45275;-70
2023/07/16 07:19:09;;;;;;;;;7.67;7.33;;;;;-145.45;100.00;57426.63;4938247;28;45222;-71
2023/07/16 07:21:34;;;;;;;;;9.00;7.67;;;;;-145.45;100.00;57426.63;4941865;28;45389;-70
2023/07/16 07:24:00;;;;;;;;;11.67;8.00;;;;;-145.45;100.00;57426.63;4942168;28;45429;-70
2023/07/16 07:26:25;;;;;;;;;8.33;6.00;;;;;-145.45;100.00;57426.63;4941219;28;45393;-70
2023/07/16 07:28:50;;;;;;;;;7.00;6.00;;;;;-145.45;100.00;57426.63;4940844;28;45333;-69
2023/07/16 07:31:16;;;;;;;;;9.33;6.67;;;;;-145.45;100.00;57426.63;4941829;28;45633;-69
2023/07/16 07:33:41;;;;;;;;;7.67;7.00;;;;;-145.45;100.00;57426.63;4941535;28;58167;-70
2023/07/16 07:36:06;;;;;;;;;7.33;5.67;;;;;-145.45;100.00;57426.63;4941899;28;45377;-70
2023/07/16 07:38:32;;;;;;;;;8.67;8.00;;;;;-145.45;100.00;57426.63;4942038;28;45409;-70
2023/07/16 07:40:57;;;;;;;;;10.00;8.00;;;;;-145.45;100.00;57426.63;4939666;28;54638;-69
2023/07/16 07:43:22;;;;;;;;;10.67;8.67;;;;;-145.45;100.00;57426.63;4941965;28;46273;-69
2023/07/16 07:45:48;;;;;;;;;6.67;5.00;;;;;-145.45;100.00;57426.63;4940062;28;52053;-72
2023/07/16 07:48:13;;;;;;;;;10.33;6.33;;;;;-145.45;100.00;57426.63;4941975;28;45392;-70
2023/07/16 07:50:38;;;;;;;;;7.00;6.67;;;;;-145.45;100.00;57426.63;4941528;28;45554;-71
2023/07/16 07:53:05;;;;;;;;;7.33;7.33;;;;;-145.45;100.00;57426.63;4941922;28;45305;-69
2023/07/16 07:55:30;;;;;;;;;12.00;7.00;;;;;-145.45;100.00;57426.63;4933269;28;45272;-72
2023/07/16 07:57:55;;;;;;;;;9.00;5.67;;;;;-145.45;100.00;57426.63;4941938;28;45255;-70
2023/07/16 08:00:21;;;;;;;;;5.00;5.00;;;;;-145.45;100.00;57426.63;4941246;28;45565;-70
2023/07/16 08:02:46;;;;;;;;;8.00;6.67;;;;;-145.45;100.00;57426.63;4941876;28;46715;-71
2023/07/16 08:05:11;;;;;;;;;9.67;7.67;;;;;-145.45;100.00;57426.63;4941304;28;45223;-71
2023/07/16 08:07:37;;;;;;;;;8.67;4.67;;;;;-145.45;100.00;57426.63;4940693;28;45543;-71
2023/07/16 08:10:02;;;;;;;;;9.67;8.67;;;;;-145.45;100.00;57426.63;4940859;28;45532;-69
2023/07/16 08:12:28;;;;;;;;;7.33;6.33;;;;;-145.45;100.00;57426.63;4940944;28;45313;-68
2023/07/16 08:14:53;;;;;;;;;8.33;6.33;;;;;-145.45;100.00;57426.63;4944479;28;45676;-69
2023/07/16 08:17:18;;;;;;;;;10.67;6.33;;;;;-145.45;100.00;57426.63;4941280;28;45310;-69
2023/07/16 08:19:44;;;;;;;;;7.00;6.00;;;;;-145.45;100.00;57426.63;4937183;28;45422;-69
2023/07/16 08:22:09;;;;;;;;;7.00;7.00;;;;;-145.45;100.00;57426.63;4940081;28;54354;-70
2023/07/16 08:24:35;;;;;;;;;6.67;5.33;;;;;-145.45;100.00;57426.63;4940389;28;45327;-70
2023/07/16 08:27:00;;;;;;;;;12.67;9.00;;;;;-145.45;100.00;57426.63;4940482;28;45355;-69
2023/07/16 08:29:25;;;;;;;;;7.00;4.75;;;;;-145.45;100.00;57426.63;4941586;28;45247;-71
2023/07/16 08:31:51;;;;;;;;;6.25;6.25;;;;;-145.45;100.00;57426.63;4940490;28;45623;-69
2023/07/16 08:34:16;;;;;;;;;7.00;7.00;;;;;-145.45;100.00;57426.63;4941899;28;45324;-69
2023/07/16 08:36:43;;;;;;;;;5.00;2.33;;;;;-145.45;100.00;57426.63;4940805;28;45432;-70
2023/07/16 08:39:09;;;;;;;;;9.25;7.00;;;;;-145.45;100.00;57426.63;4941620;28;45621;-70
2023/07/16 08:41:34;;;;;;;;;8.75;6.25;;;;;-145.45;100.00;57426.63;4936575;28;47457;-71
2023/07/16 08:44:00;;;;;;;;;6.50;5.75;;;;;-145.45;100.00;57426.63;4941290;28;45456;-70
2023/07/16 08:46:26;;;;;;;;;7.75;7.00;;;;;-145.45;100.00;57426.63;4940571;28;45431;-70
2023/07/16 08:48:52;;;;;;;;;5.75;5.75;;;;;-145.45;100.00;57426.63;4941004;28;45440;-69
2023/07/16 08:51:19;;;;;;;;;6.75;4.50;;;;;-145.45;100.00;57426.63;4940510;28;46603;-70
2023/07/16 08:53:45;;;;;;;;;7.75;6.00;;;;;-145.45;100.00;57426.63;4941603;28;45389;-70
2023/07/16 08:56:11;;;;;;;;;6.50;5.50;;;;;-145.45;100.00;57426.63;4940325;28;45414;-70
2023/07/16 08:58:38;;;;;;;;;7.25;6.75;;;;;-145.45;100.00;57426.63;4940715;28;45656;-71
2023/07/16 09:01:06;;;;;;;;;7.00;7.00;;;;;-145.45;100.00;57426.63;4939600;28;48106;-70
2023/07/16 09:03:31;;;;;;;;;6.75;5.50;;;;;-145.45;100.00;57426.63;4940962;28;45350;-71
2023/07/16 09:05:56;;;;;;;;;5.00;5.00;;;;;-145.45;100.00;57426.63;4940552;28;45316;-70
2023/07/16 09:08:28;;;;;;;;;5.00;4.00;;;;;-145.45;100.00;57426.63;4940584;28;45365;-71
2023/07/16 09:10:55;;;;;;;;;6.00;5.00;;;;;-145.45;100.00;57426.63;4939648;28;46191;-70
2023/07/16 09:13:20;;;;;;;;;7.00;5.25;;;;;-145.45;100.00;57426.63;4940520;28;45416;-70
2023/07/16 09:15:51;;;;;;;;;4.75;3.50;;;;;-145.45;100.00;57426.63;4940083;28;45633;-70
2023/07/16 09:18:24;;;;;;;;;6.50;6.25;;;;;-145.45;100.00;57426.63;4940081;28;45321;-71
2023/07/16 09:21:05;;;;;;;;;5.50;4.00;;;;;-145.45;100.00;57426.63;4938595;28;45471;-71
2023/07/16 09:23:33;;;;;;;;;6.00;5.25;;;;;-145.45;100.00;57426.63;4953015;28;45327;-70
2023/07/16 09:25:58;;;;;;;;;6.25;5.00;;;;;-145.45;100.00;57426.63;4939865;28;45535;-71
2023/07/16 09:28:24;;;;;;;;;6.00;3.50;;;;;-145.45;100.00;57426.63;4940017;28;45258;-70
2023/07/16 09:30:50;;;;;;;;;6.50;4.00;;;;;-145.45;100.00;57426.63;4940050;28;45601;-70
2023/07/16 09:33:17;;;;;;;;;5.25;2.75;;;;;-145.45;100.00;57426.63;4940239;28;45156;-70
2023/07/16 09:35:43;;;;;;;;;4.75;4.75;;;;;-145.45;100.00;57426.63;4940129;28;45387;-70
2023/07/16 09:38:10;;;;;;;;;7.00;5.50;;;;;-145.45;100.00;57426.63;4940184;28;45824;-70
2023/07/16 09:40:42;;;;;;;;;7.50;5.00;;;;;-145.45;100.00;57426.63;4939621;28;45393;-71
2023/07/16 09:43:08;;;;;;;;;5.00;2.80;;;;;-145.45;100.00;57426.63;4939269;28;45520;-70
2023/07/16 09:45:33;;;;;;;;;3.25;3.00;;;;;-145.45;100.00;57426.63;4940284;28;45334;-71
2023/07/16 09:47:59;;;;;;;;;4.50;4.50;;;;;-145.45;100.00;57426.63;4940170;28;45477;-71
2023/07/16 09:50:27;;;;;;;;;5.25;4.00;;;;;-145.45;100.00;57426.63;4937234;28;46555;-72
2023/07/16 09:52:53;;;;;;;;;6.80;5.00;;;;;-145.45;100.00;57426.63;4940332;28;45411;-71
2023/07/16 09:55:21;;;;;;;;;5.25;4.25;;;;;-145.45;100.00;57426.63;4939712;28;45231;-70
2023/07/16 09:57:47;;;;;;;;;3.75;2.50;;;;;-145.45;100.00;57426.63;4940246;28;45428;-71
2023/07/16 10:00:15;;;;;;;;;5.25;5.00;;;;;-145.45;100.00;57426.63;4939825;28;45403;-70
2023/07/16 10:02:41;;;;;;;;;3.20;2.20;;;;;-145.45;100.00;57426.63;4936422;28;45274;-70
2023/07/16 10:05:18;;;;;;;;;5.75;4.25;;;;;-145.45;100.00;57426.63;4938400;28;45328;-71
2023/07/16 10:07:51;;;;;;;;;6.00;3.50;;;;;-145.45;100.00;57426.63;4937707;28;45690;-71
2023/07/16 10:10:17;;;;;;;;;3.40;3.40;;;;;-145.45;100.00;57426.63;4953610;28;48214;-71
2023/07/16 10:12:54;;;;;;;;;6.00;6.00;;;;;-145.45;100.00;57426.63;4939665;28;45516;-70
2023/07/16 10:15:26;;;;;;;;;5.40;3.80;;;;;-145.45;100.00;57426.63;4937635;28;45477;-70
2023/07/16 10:17:51;;;;;;;;;6.00;3.60;;;;;-145.45;100.00;57426.63;4939809;28;45355;-71
2023/07/16 10:20:16;;;;;;;;;4.00;4.00;;;;;-145.45;100.00;57426.63;4931813;28;45403;-70
2023/07/16 10:22:51;;;;;;;;;5.00;5.00;;;;;-145.45;100.00;57426.63;4940055;28;45456;-70
2023/07/16 10:25:19;;;;;;;;;3.20;3.20;;;;;-145.45;100.00;57426.63;4934465;28;45595;-71
2023/07/16 10:27:46;;;;;;;;;5.40;4.20;;;;;-145.45;100.00;57426.63;4939836;28;45312;-71
2023/07/16 10:30:12;;;;;;;;;4.80;4.80;;;;;-145.45;100.00;57426.63;4938810;28;47855;-71
2023/07/16 10:32:38;;;;;;;;;5.00;5.00;;;;;-145.45;100.00;57426.63;4940102;28;45353;-71
2023/07/16 10:35:05;;;;;;;;;5.00;5.00;;;;;-145.45;100.00;57426.63;4941439;28;45463;-71
2023/07/16 10:37:30;;;;;;;;;6.20;4.40;;;;;-145.45;100.00;57426.63;4941568;28;46729;-72
2023/07/16 10:39:58;;;;;;;;;9.00;5.50;;;;;-145.45;100.00;57426.63;4942289;28;45707;-70
2023/07/16 10:42:24;;;;;;;;;6.40;4.00;;;;;-145.45;100.00;57426.63;4939296;28;45595;-69
2023/07/16 10:44:54;;;;;;;;;3.60;2.60;;;;;-145.45;100.00;57426.63;4942371;28;45266;-72
2023/07/16 10:47:25;;;;;;;;;5.00;4.80;;;;;-145.45;100.00;57426.63;4942597;28;45315;-71
2023/07/16 10:49:54;;;;;;;;;2.80;2.20;;;;;-145.45;100.00;57426.63;4942085;28;45499;-70
2023/07/16 10:52:21;;;;;;;;;5.40;3.80;;;;;-145.45;100.00;57426.63;4941376;28;45408;-71
2023/07/16 10:54:48;;;;;;;;;7.00;3.00;;;;;-145.45;100.00;57426.63;4942761;28;45281;-71
2023/07/16 10:57:13;;;;;;;;;2.60;0.60;;;;;-145.45;100.00;57426.63;4942149;28;45420;-70
2023/07/16 10:59:40;;;;;;;;;5.25;4.25;;;;;-145.45;100.00;57426.63;4942815;28;45884;-71
2023/07/16 11:02:10;;;;;;;;;4.80;3.20;;;;;-145.45;100.00;57426.63;4939460;28;45258;-70
2023/07/16 11:04:35;;;;;;;;;5.40;4.40;;;;;-145.45;100.00;57426.63;4942881;28;45468;-71
2023/07/16 11:07:11;;;;;;;;;4.00;4.00;;;;;-145.45;100.00;57426.63;4941837;28;45524;-70
2023/07/16 11:09:48;;;;;;;;;5.60;4.40;;;;;-145.45;100.00;57426.63;4942391;28;45484;-70
2023/07/16 11:12:16;;;;;;;;;5.40;3.80;;;;;-145.45;100.00;57426.63;4941631;28;45308;-71
2023/07/16 11:14:55;;;;;;;;;3.60;3.20;;;;;-145.45;100.00;57426.63;4942460;28;45306;-71
2023/07/16 11:17:24;;;;;;;;;6.00;4.80;;;;;-145.45;100.00;57426.63;4941403;28;45485;-71
2023/07/16 11:19:52;;;;;;;;;4.00;4.00;;;;;-145.45;100.00;57426.63;4934125;28;45612;-71
2023/07/16 11:22:18;;;;;;;;;4.00;4.00;;;;;-145.45;100.00;57426.63;4939814;28;45494;-71
2023/07/16 11:24:49;;;;;;;;;4.50;4.00;;;;;-145.45;100.00;57426.63;4942003;28;45356;-72
2023/07/16 11:27:17;;;;;;;;;3.80;3.80;;;;;-145.45;100.00;57426.63;4940132;28;46222;-70
2023/07/16 11:29:51;;;;;;;;;5.20;5.00;;;;;-145.45;100.00;57426.63;4941652;28;45772;-73
2023/07/16 11:32:34;;;;;;;;;6.60;4.80;;;;;-145.45;100.00;57426.63;4941880;28;45268;-73
2023/07/16 11:35:01;;;;;;;;;3.60;3.60;;;;;-145.45;100.00;57426.63;4941474;28;45492;-72
2023/07/16 11:37:29;;;;;;;;;3.00;1.60;;;;;-145.45;100.00;57426.63;4938557;28;45496;-73
2023/07/16 11:39:59;;;;;;;;;3.60;3.60;;;;;-145.45;100.00;57426.63;4936350;28;45535;-72
2023/07/16 11:42:38;;;;;;;;;4.40;4.40;;;;;-145.45;100.00;57426.63;4933582;28;45600;-72
2023/07/16 11:45:05;;;;;;;;;4.60;4.60;;;;;-145.45;100.00;57426.63;4938064;28;46466;-73
2023/07/16 11:47:31;;;;;;;;;5.50;3.00;;;;;-145.45;100.00;57426.63;4936688;28;45606;-72
2023/07/16 11:49:57;;;;;;;;;4.80;3.80;;;;;-145.45;100.00;57426.63;4935385;28;45487;-72
2023/07/16 11:52:25;;;;;;;;;5.60;4.00;;;;;-145.45;100.00;57426.63;4936680;28;45384;-72
2023/07/16 11:54:56;;;;;;;;;6.50;3.75;;;;;-145.45;100.00;57426.63;4937604;28;45156;-71
2023/07/16 11:57:22;;;;;;;;;5.40;3.80;;;;;-145.45;100.00;57426.63;4938272;28;45319;-72
2023/07/16 11:59:47;;;;;;;;;5.25;3.25;;;;;-145.45;100.00;57426.63;4938135;28;46715;-72
2023/07/16 12:02:13;;;;;;;;;5.00;5.00;;;;;-145.45;100.00;57426.63;4940760;28;53612;-72
2023/07/16 12:04:38;;;;;;;;;5.00;4.50;;;;;-145.45;100.00;57426.63;4937863;28;45371;-72
2023/07/16 12:07:04;;;;;;;;;6.00;4.00;;;;;-145.45;100.00;57426.63;4934200;28;46354;-72
2023/07/16 12:09:29;;;;;;;;;4.00;3.75;;;;;-145.45;100.00;57426.63;4942073;28;46371;-72
2023/07/16 12:11:56;;;;;;;;;6.25;5.25;;;;;-145.45;100.00;57426.63;4936475;28;45470;-72
2023/07/16 12:14:21;;;;;;;;;4.50;4.25;;;;;-145.45;100.00;57426.63;4935672;28;45527;-71
2023/07/16 12:16:46;;;;;;;;;4.00;4.00;;;;;-145.45;100.00;57426.63;4935719;28;45442;-71
2023/07/16 12:19:12;;;;;;;;;5.25;3.25;;;;;-145.45;100.00;57426.63;4953611;28;48251;-71
2023/07/16 12:21:37;;;;;;;;;8.00;6.25;;;;;-145.45;100.00;57426.63;4938833;28;45610;-72
2023/07/16 12:24:03;;;;;;;;;5.75;3.00;;;;;-145.45;100.00;57426.63;4936382;28;45539;-71
2023/07/16 12:26:28;;;;;;;;;4.50;4.50;;;;;-145.45;100.00;57426.63;4934643;28;45500;-71
2023/07/16 12:28:54;;;;;;;;;2.25;2.00;;;;;-145.45;100.00;57426.63;4937385;28;45558;-71
2023/07/16 12:31:20;;;;;;;;;5.00;4.25;;;;;-145.45;100.00;57426.63;4935846;28;45486;-71
2023/07/16 12:33:46;;;;;;;;;5.00;4.00;;;;;-145.45;100.00;57426.63;4940541;28;46097;-71
2023/07/16 12:36:12;;;;;;;;;5.00;5.00;;;;;-145.45;100.00;57426.63;4938319;28;46501;-71
2023/07/16 12:38:37;;;;;;;;;6.50;4.25;;;;;-145.45;100.00;57426.63;4936246;28;45426;-70
2023/07/16 12:41:03;;;;;;;;;6.00;5.50;;;;;-145.45;100.00;57426.63;4934893;28;45435;-71
2023/07/16 12:43:28;;;;;;;;;6.25;5.00;;;;;-145.45;100.00;57426.63;4937954;28;45301;-71
2023/07/16 12:45:54;;;;;;;;;9.75;9.75;;;;;-145.45;100.00;57426.63;4937363;28;45562;-71
2023/07/16 12:48:19;;;;;;;;;6.75;6.75;;;;;-145.45;100.00;57426.63;4939720;28;46253;-72
2023/07/16 12:50:44;;;;;;;;;5.75;4.75;;;;;-145.45;100.00;57426.63;4937445;28;50370;-71
2023/07/16 12:53:10;;;;;;;;;6.50;4.50;;;;;-145.45;100.00;57426.63;4950483;28;45525;-71
2023/07/16 12:55:35;;;;;;;;;6.00;6.00;;;;;-145.45;100.00;57426.63;4935413;28;47063;-70
2023/07/16 12:58:01;;;;;;;;;6.00;6.00;;;;;-145.45;100.00;57426.63;4936341;28;45826;-71
2023/07/16 13:00:26;;;;;;;;;5.75;5.75;;;;;-145.45;100.00;57426.63;4937324;28;45503;-71
2023/07/16 13:02:51;;;;;;;;;5.75;4.50;;;;;-145.45;100.00;57426.63;4936452;28;45576;-71
2023/07/16 13:05:17;;;;;;;;;7.00;5.50;;;;;-145.45;100.00;57426.63;4935920;28;53995;-71
2023/07/16 13:07:42;;;;;;;;;4.50;3.00;;;;;-145.45;100.00;57426.63;4937572;28;46155;-71
2023/07/16 13:10:08;;;;;;;;;5.00;5.00;;;;;-145.45;100.00;57426.63;4934784;28;45526;-70
2023/07/16 13:12:34;;;;;;;;;9.50;5.75;;;;;-145.45;100.00;57426.63;4934100;28;45496;-71
2023/07/16 13:14:59;;;;;;;;;7.75;5.25;;;;;-145.45;100.00;57426.63;4936349;28;45468;-71
2023/07/16 13:17:24;;;;;;;;;6.00;4.75;;;;;-145.45;100.00;57426.63;4934485;28;46533;-71
2023/07/16 13:19:50;;;;;;;;;6.00;6.00;;;;;-145.45;100.00;57426.63;4939618;28;47911;-71
2023/07/16 13:22:15;;;;;;;;;7.75;6.00;;;;;-145.45;100.00;57426.63;4935836;28;45464;-71
2023/07/16 13:24:40;;;;;;;;;7.50;5.50;;;;;-145.45;100.00;57426.63;4934758;28;60522;-71
2023/07/16 13:27:06;;;;;;;;;7.75;6.00;;;;;-145.45;100.00;57426.63;4935342;28;45636;-70
2023/07/16 13:29:31;;;;;;;;;6.25;5.00;;;;;-145.45;100.00;57426.63;4939258;28;45401;-72
2023/07/16 13:31:56;;;;;;;;;10.25;8.00;;;;;-145.45;100.00;57426.63;4936329;28;45444;-72
2023/07/16 13:34:22;;;;;;;;;6.25;5.75;;;;;-145.45;100.00;57426.63;4936816;28;45393;-72
2023/07/16 13:36:47;;;;;;;;;6.00;6.00;;;;;-145.45;100.00;57426.63;4934259;28;57454;-70
2023/07/16 13:39:13;;;;;;;;;7.25;7.25;;;;;-145.45;100.00;57426.63;4936454;28;45420;-70
2023/07/16 13:41:39;;;;;;;;;5.00;5.00;;;;;-145.45;100.00;57426.63;4935148;28;45409;-72
2023/07/16 13:44:04;;;;;;;;;2.80;2.80;;;;;-145.45;100.00;57426.63;4936034;28;45420;-72
2023/07/16 13:46:30;;;;;;;;;5.25;5.25;;;;;-145.45;100.00;57426.63;4935297;28;45729;-72
2023/07/16 13:48:55;;;;;;;;;12.25;6.50;;;;;-145.45;100.00;57426.63;4936099;28;45689;-70
2023/07/16 13:51:20;;;;;;;;;6.25;4.25;;;;;-145.45;100.00;57426.63;4935625;28;45704;-72
2023/07/16 13:53:46;;;;;;;;;5.00;5.00;;;;;-145.45;100.00;57426.63;4938306;28;45349;-72
2023/07/16 13:56:11;;;;;;;;;5.75;5.50;;;;;-145.45;100.00;57426.63;4934635;28;47284;-72
2023/07/16 13:58:36;;;;;;;;;3.25;2.75;;;;;-145.45;100.00;57426.63;4937213;28;45435;-71
2023/07/16 14:01:02;;;;;;;;;6.50;5.00;;;;;-145.45;100.00;57426.63;4939954;28;45463;-72
2023/07/16 14:03:28;;;;;;;;;6.25;5.00;;;;;-145.45;100.00;57426.63;4934912;28;45505;-70
2023/07/16 14:05:53;;;;;;;;;5.00;5.00;;;;;-145.45;100.00;57426.63;4936824;28;49267;-71
2023/07/16 14:08:18;;;;;;;;;7.00;7.00;;;;;-145.45;100.00;57426.63;4939006;28;45496;-70
2023/07/16 14:10:44;;;;;;;;;9.75;7.00;;;;;-145.45;100.00;57426.63;4938176;28;45569;-72
2023/07/16 14:13:09;;;;;;;;;7.25;7.25;;;;;-145.45;100.00;57426.63;4938072;28;47352;-71
2023/07/16 14:15:35;;;;;;;;;10.50;7.25;;;;;-145.45;100.00;57426.63;4937914;28;45473;-72
2023/07/16 14:18:00;;;;;;;;;7.75;6.00;;;;;-145.45;100.00;57426.63;4938841;28;45533;-71
2023/07/16 14:20:26;;;;;;;;;6.75;5.50;;;;;-145.45;100.00;57426.63;4946382;28;45611;-71
2023/07/16 14:22:52;;;;;;;;;3.00;3.00;;;;;-145.45;100.00;57426.63;4936864;28;45464;-71
2023/07/16 14:25:17;;;;;;;;;4.40;4.20;;;;;-145.45;100.00;57426.63;4937288;28;45672;-71
2023/07/16 14:27:43;;;;;;;;;0.25;0.25;;;;;-145.45;100.00;57426.63;4937624;28;45465;-72
2023/07/16 14:30:09;;;;;;;;;4.25;2.25;;;;;-145.45;100.00;57426.63;4936374;28;45612;-71
2023/07/16 14:32:34;;;;;;;;;4.00;2.25;;;;;-145.45;100.00;57426.63;4937804;28;45445;-71
2023/07/16 14:35:00;;;;;;;;;3.25;3.25;;;;;-145.45;100.00;57426.63;4940069;28;45444;-70
2023/07/16 14:37:26;;;;;;;;;4.60;3.80;;;;;-145.45;100.00;57426.63;4940997;28;45975;-70
2023/07/16 14:39:51;;;;;;;;;3.25;3.25;;;;;-145.45;100.00;57426.63;4937977;28;45366;-70
2023/07/16 14:42:16;;;;;;;;;1.75;1.50;;;;;-145.45;100.00;57426.63;4940050;28;45994;-71
2023/07/16 14:44:42;;;;;;;;;4.00;3.00;;;;;-145.45;100.00;57426.63;4939269;28;45390;-70
2023/07/16 14:47:07;;;;;;;;;3.50;3.50;;;;;-145.45;100.00;57426.63;4936478;28;49112;-71
2023/07/16 14:49:32;;;;;;;;;5.25;2.25;;;;;-145.45;100.00;57426.63;4938195;28;45389;-70
2023/07/16 14:51:57;;;;;;;;;3.25;2.25;;;;;-145.45;100.00;57426.63;4939118;28;45581;-70
2023/07/16 14:54:23;;;;;;;;;2.00;0.50;;;;;-145.45;100.00;57426.63;4938763;28;47155;-71
2023/07/16 14:56:48;;;;;;;;;3.25;3.25;;;;;-145.45;100.00;57426.63;4934345;28;46656;-71
2023/07/16 14:59:14;;;;;;;;;4.25;3.75;;;;;-145.45;100.00;57426.63;4938010;28;45546;-70
2023/07/16 15:01:39;;;;;;;;;5.00;3.50;;;;;-145.45;100.00;57426.63;4938421;28;45669;-70
2023/07/16 15:04:04;;;;;;;;;4.75;4.75;;;;;-145.45;100.00;57426.63;4938113;28;50078;-71
2023/07/16 15:06:30;;;;;;;;;7.50;4.00;;;;;-145.45;100.00;57426.63;4936152;28;45505;-70
2023/07/16 15:08:55;;;;;;;;;4.00;3.75;;;;;-145.45;100.00;57426.63;4947692;28;45471;-70
2023/07/16 15:11:20;;;;;;;;;4.00;3.25;;;;;-145.45;100.00;57426.63;4935090;28;45689;-70
2023/07/16 15:13:46;;;;;;;;;3.50;1.00;;;;;-145.45;100.00;57426.63;4936396;28;48568;-70
2023/07/16 15:16:12;;;;;;;;;2.00;1.00;;;;;-145.45;100.00;57426.63;4937190;28;45449;-70
2023/07/16 15:18:38;;;;;;;;;4.80;3.20;;;;;-145.45;100.00;57426.63;4938789;28;45472;-70
2023/07/16 15:21:03;;;;;;;;;4.25;4.25;;;;;-145.45;100.00;57426.63;4941273;28;45617;-71
2023/07/16 15:23:29;;;;;;;;;4.50;3.75;;;;;-145.45;100.00;57426.63;4936356;28;45424;-70
2023/07/16 15:25:55;;;;;;;;;5.75;4.25;;;;;-145.45;100.00;57426.63;4935514;28;45481;-70
2023/07/16 15:28:21;;;;;;;;;5.00;3.40;;;;;-145.45;100.00;57426.63;4937704;28;45416;-70
2023/07/16 15:30:47;;;;;;;;;6.75;4.25;;;;;-145.45;100.00;57426.63;4945308;28;45465;-70
2023/07/16 15:33:12;;;;;;;;;4.00;4.00;;;;;-145.45;100.00;57426.63;4940646;28;46469;-71
2023/07/16 15:35:37;;;;;;;;;6.75;3.75;;;;;-145.45;100.00;57426.63;4937712;28;45955;-71
2023/07/16 15:38:05;;;;;;;;;4.50;4.50;;;;;-145.45;100.00;57426.63;4945110;28;45289;-72
2023/07/16 15:40:34;;;;;;;;;4.50;4.00;;;;;-145.45;100.00;57426.63;4938534;28;46101;-72
2023/07/16 15:43:00;;;;;;;;;5.00;4.00;;;;;-145.45;100.00;57426.63;4937368;28;45390;-72
2023/07/16 15:45:25;;;;;;;;;4.25;4.25;;;;;-145.45;100.00;57426.63;4936954;28;46006;-71
2023/07/16 15:47:56;;;;;;;;;5.00;3.50;;;;;-145.45;100.00;57426.63;4936187;28;45457;-72
2023/07/16 15:50:26;;;;;;;;;3.00;3.00;;;;;-145.45;100.00;57426.63;4942055;28;46106;-70
2023/07/16 15:52:52;;;;;;;;;2.40;2.40;;;;;-145.45;100.00;57426.63;4935823;28;45711;-71
2023/07/16 15:55:17;;;;;;;;;5.25;3.50;;;;;-145.45;100.00;57426.63;4937020;28;45454;-70
2023/07/16 15:57:43;;;;;;;;;7.25;5.75;;;;;-145.45;100.00;57426.63;4937886;28;45401;-71
2023/07/16 16:00:14;;;;;;;;;2.25;2.25;;;;;-145.45;100.00;57426.63;4938098;28;45551;-70
2023/07/16 16:02:49;;;;;;;;;2.60;2.60;;;;;-145.45;100.00;57426.63;4939838;28;45179;-71
2023/07/16 16:05:15;;;;;;;;;4.40;2.60;;;;;-145.45;100.00;57426.63;4935980;28;45400;-72
2023/07/16 16:07:46;;;;;;;;;2.00;2.00;;;;;-145.45;100.00;57426.63;4940138;28;45278;-71
2023/07/16 16:10:13;;;;;;;;;4.20;4.20;;;;;-145.45;100.00;57426.63;4937292;28;46331;-71
2023/07/16 16:12:38;;;;;;;;;4.80;3.00;;;;;-145.45;100.00;57426.63;4936124;28;45491;-71
2023/07/16 16:15:04;;;;;;;;;7.00;2.75;;;;;-145.45;100.00;57426.63;4937393;28;45338;-70
2023/07/16 16:17:30;;;;;;;;;3.00;3.00;;;;;-145.45;100.00;57426.63;4937052;28;45349;-71
2023/07/16 16:19:55;;;;;;;;;7.25;4.00;;;;;-145.45;100.00;57426.63;4939140;28;45273;-71
2023/07/16 16:22:20;;;;;;;;;4.25;2.50;;;;;-145.45;100.00;57426.63;4940144;28;45562;-72
2023/07/16 16:24:46;;;;;;;;;2.50;2.50;;;;;-145.45;100.00;57426.63;4941331;28;48829;-71
2023/07/16 16:27:11;;;;;;;;;5.00;4.00;;;;;-145.45;100.00;57426.63;4940215;28;45469;-71
2023/07/16 16:29:37;;;;;;;;;3.75;3.50;;;;;-145.45;100.00;57426.63;4941365;28;45500;-71
2023/07/16 16:32:02;;;;;;;;;1.25;1.25;;;;;-145.45;100.00;57426.63;4941014;28;46757;-71
2023/07/16 16:34:28;;;;;;;;;3.00;3.00;;;;;-145.45;100.00;57426.63;4941674;28;45203;-71
2023/07/16 16:36:54;;;;;;;;;4.75;2.00;;;;;-145.45;100.00;57426.63;4940517;28;45451;-71
2023/07/16 16:39:21;;;;;;;;;5.00;3.25;;;;;-145.45;100.00;57426.63;4941672;28;45591;-70
2023/07/16 16:41:47;;;;;;;;;2.50;1.50;;;;;-145.45;100.00;57426.63;4940365;28;45471;-70
2023/07/16 16:44:13;;;;;;;;;2.80;2.60;;;;;-145.45;100.00;57426.63;4941538;28;45404;-71
2023/07/16 16:46:39;;;;;;;;;4.00;1.80;;;;;-145.45;100.00;57426.63;4939646;28;45439;-71
2023/07/16 16:49:04;;;;;;;;;3.25;2.50;;;;;-145.45;100.00;57426.63;4941282;28;45484;-71
2023/07/16 16:51:29;;;;;;;;;3.00;3.00;;;;;-145.45;100.00;57426.63;4940059;28;54452;-72
2023/07/16 16:53:55;;;;;;;;;2.75;2.75;;;;;-145.45;100.00;57426.63;4940828;28;52092;-71
2023/07/16 16:56:21;;;;;;;;;6.25;2.25;;;;;-145.45;100.00;57426.63;4940310;28;45287;-71
2023/07/16 16:58:46;;;;;;;;;3.00;3.00;;;;;-145.45;100.00;57426.63;4941246;28;45405;-71
2023/07/16 17:01:11;;;;;;;;;5.00;4.00;;;;;-145.45;100.00;57426.63;4940480;28;45274;-71
2023/07/16 17:03:37;;;;;;;;;3.50;3.00;;;;;-145.45;100.00;57426.63;4941117;28;45267;-71
2023/07/16 17:06:02;;;;;;;;;3.75;3.00;;;;;-145.45;100.00;57426.63;4940295;28;45402;-71
2023/07/16 17:08:28;;;;;;;;;4.50;3.00;;;;;-145.45;100.00;57426.63;4940971;28;45390;-71
2023/07/16 17:10:53;;;;;;;;;2.75;2.00;;;;;-145.45;100.00;57426.63;4939781;28;46129;-71
2023/07/16 17:13:18;;;;;;;;;3.00;2.00;;;;;-145.45;100.00;57426.63;4940913;28;45365;-71